aviador You're here:

MMEP Decoded Metar

TEPIC in MEXICO
Report Time2017-04-29 16:50:00
UTC Time2017-04-29 17:46:54
Flight Rules vfr VFR
Wind220° at 05 kt
W.Decomp.*RWY 20: 4.9 kt HW 1.0 kt RCW
W.Rank220° ranks 8
Current wind is below 220° avg. (5.4)
Visibility9999 m
Phenomena:N/A
Clouds:N/A
Expected CloudBase > 10,000 ft AGL from Temp-Dew spread
CeilingNone
Temp28°C (ISA +19)
Dew Point03°C (20% RH)
Heat Index26.7°C
AAT24.7°C
QNH1016 hPa
Density Alt5,203 ft
Elevation3,025 ft
Report Wrong Elevation
Raw Report
MMEP 291650Z 22005KT 12SM SKC 28/03 A2999=

Extra information for MMEP:More info

Metar Taf Metar & Taf Last 4 Metars F.Rules Stats Wind Profile Meteogram Temp Stats Airport Information Weather charts Add Link Nearby VenuesMetar ALERT Operation Metar Decoded Social comments